Time;durP1;ratioP1;P1;durP2;ratioP2;P2;SDS_P1;SDS_P2;PMS_P1;PMS_P2;Temp;Humidity;BMP_temperature;BMP_pressure;BME280_temperature;BME280_humidity;BME280_pressure;Samples;Min_cycle;Max_cycle;Signal;HPM_P1;HPM_P2
2023/02/21 02:15:49;;;;;;;12.60;4.57;;;;;;;6.25;96.36;96676.69;5056495;28;20200;-66
2023/02/21 02:18:44;;;;;;;9.50;4.23;;;;;;;6.25;96.26;96670.63;5056745;28;20231;-65
2023/02/21 02:22:01;;;;;;;16.83;4.73;;;;;;;6.11;97.44;96663.22;5056798;28;20216;-67
2023/02/21 02:24:46;;;;;;;13.70;4.73;;;;;;;6.06;97.50;96666.25;5056207;28;20220;-66
2023/02/21 02:27:57;;;;;;;12.03;4.97;;;;;;;6.12;97.33;96663.09;5056502;28;20200;-65
2023/02/21 02:30:49;;;;;;;11.20;4.70;;;;;;;6.04;98.11;96665.53;5031838;28;20204;-66
2023/02/21 02:33:54;;;;;;;10.83;4.67;;;;;;;6.12;97.65;96655.25;5056425;28;20224;-66
2023/02/21 02:36:26;;;;;;;10.37;4.50;;;;;;;6.04;96.54;96665.53;5056590;28;20300;-65
2023/02/21 02:39:01;;;;;;;14.00;5.13;;;;;;;6.05;96.49;96663.78;5056889;28;20208;-66
2023/02/21 02:41:39;;;;;;;9.80;4.80;;;;;;;6.06;95.91;96666.25;5056702;28;20206;-66
2023/02/21 02:44:14;;;;;;;10.97;5.23;;;;;;;6.04;96.65;96666.53;5055970;28;20673;-66
2023/02/21 02:46:43;;;;;;;8.07;3.90;;;;;;;5.89;96.84;96660.88;5056815;28;20659;-65
2023/02/21 02:49:14;;;;;;;12.53;4.90;;;;;;;6.00;96.35;96665.16;5056446;28;20200;-67
2023/02/21 02:51:42;;;;;;;12.00;4.93;;;;;;;5.87;96.74;96659.38;5056044;28;21123;-66
2023/02/21 02:54:09;;;;;;;10.20;4.83;;;;;;;5.68;98.76;96659.38;5055976;28;20207;-67
2023/02/21 02:56:37;;;;;;;15.00;5.13;;;;;;;5.68;100.00;96643.69;5057202;28;20196;-67
2023/02/21 02:59:07;;;;;;;11.40;4.80;;;;;;;5.85;99.06;96661.31;5056732;28;20269;-66
2023/02/21 03:01:56;;;;;;;16.87;5.33;;;;;;;5.90;98.54;96665.16;5056304;28;20208;-66
2023/02/21 03:04:44;;;;;;;13.83;5.83;;;;;;;5.92;98.89;96658.00;5056190;28;20240;-67
2023/02/21 03:07:22;;;;;;;14.67;4.90;;;;;;;5.91;99.00;96656.34;5056671;28;20239;-66
2023/02/21 03:09:58;;;;;;;11.80;5.70;;;;;;;5.92;98.45;96657.16;5056977;28;20239;-66
2023/02/21 03:12:35;;;;;;;11.37;5.23;;;;;;;5.93;98.11;96661.44;5056131;28;20224;-66
2023/02/21 03:15:11;;;;;;;13.03;5.17;;;;;;;5.89;98.59;96657.44;5052778;28;20200;-65
2023/02/21 03:17:42;;;;;;;14.93;6.17;;;;;;;5.80;98.80;96661.72;5056779;28;20257;-67
2023/02/21 03:20:12;;;;;;;8.80;4.67;;;;;;;5.78;98.83;96652.34;5056816;28;20196;-65
2023/02/21 03:22:43;;;;;;;12.87;4.83;;;;;;;5.79;98.40;96659.25;5056497;28;20608;-67
2023/02/21 03:25:11;;;;;;;12.47;4.63;;;;;;;5.67;99.25;96663.75;5055903;28;20252;-67
2023/02/21 03:27:40;;;;;;;11.10;4.90;;;;;;;5.64;98.39;96661.41;5056354;28;20209;-67
2023/02/21 03:30:09;;;;;;;11.47;4.53;;;;;;;5.50;96.44;96671.47;5055910;28;20204;-65
2023/02/21 03:32:38;;;;;;;11.80;5.03;;;;;;;5.49;96.74;96664.56;5055837;28;20220;-67
2023/02/21 03:35:06;;;;;;;9.90;4.80;;;;;;;5.36;96.53;96669.22;5055935;28;20692;-67
2023/02/21 03:37:35;;;;;;;13.67;4.80;;;;;;;5.10;95.34;96672.47;5056570;28;20276;-66
2023/02/21 03:40:05;;;;;;;9.93;4.70;;;;;;;5.00;96.68;96677.66;5056329;28;20197;-67
2023/02/21 03:42:32;;;;;;;10.10;5.03;;;;;;;4.96;97.93;96673.69;5057429;28;20224;-68
2023/02/21 03:44:58;;;;;;;13.93;4.97;;;;;;;4.94;98.52;96672.97;5056301;28;20224;-68
2023/02/21 03:47:25;;;;;;;12.93;5.10;;;;;;;4.86;98.82;96669.34;5056200;28;20204;-67
2023/02/21 03:49:51;;;;;;;10.97;4.80;;;;;;;4.80;97.29;96664.69;5056203;28;20201;-65
2023/02/21 03:52:18;;;;;;;11.47;5.07;;;;;;;4.80;99.50;96671.66;5055913;28;20227;-67
2023/02/21 03:54:44;;;;;;;12.10;4.90;;;;;;;4.82;99.63;96656.72;5055111;28;20209;-66
2023/02/21 03:57:12;;;;;;;12.37;5.03;;;;;;;4.95;98.63;96661.56;5059728;28;20209;-65
2023/02/21 03:59:39;;;;;;;15.37;5.40;;;;;;;4.67;96.13;96661.47;5060147;28;20211;-67
2023/02/21 04:02:05;;;;;;;9.70;5.00;;;;;;;4.66;97.81;96658.97;5058990;28;20229;-67
2023/02/21 04:04:32;;;;;;;11.43;5.27;;;;;;;4.78;100.00;96661.34;5059103;28;20204;-67
2023/02/21 04:06:58;;;;;;;14.40;5.40;;;;;;;4.88;99.72;96657.00;5059766;28;20231;-67
2023/02/21 04:09:25;;;;;;;15.10;5.37;;;;;;;4.84;100.00;96655.63;5059393;28;20957;-67
2023/02/21 04:11:52;;;;;;;10.60;5.03;;;;;;;4.86;100.00;96667.59;5059577;28;20232;-66
2023/02/21 04:14:21;;;;;;;12.47;5.37;;;;;;;4.93;100.00;96660.88;5058844;28;20220;-66
2023/02/21 04:16:48;;;;;;;12.93;5.40;;;;;;;4.63;99.99;96660.06;5059894;28;20211;-67
2023/02/21 04:19:14;;;;;;;12.33;4.63;;;;;;;4.54;100.00;96665.25;5059133;28;20208;-64
2023/02/21 04:21:41;;;;;;;10.67;4.97;;;;;;;4.64;100.00;96663.50;5059491;28;20687;-65
2023/02/21 04:24:07;;;;;;;14.67;5.63;;;;;;;4.73;100.00;96658.31;5058640;28;20283;-67
2023/02/21 04:26:34;;;;;;;15.63;5.57;;;;;;;4.75;100.00;96656.41;5058856;28;20708;-66
2023/02/21 04:29:01;;;;;;;14.47;5.27;;;;;;;4.85;100.00;96658.09;5059345;28;20192;-64
2023/02/21 04:31:29;;;;;;;13.13;5.23;;;;;;;4.58;100.00;96661.41;5058907;28;20200;-65
2023/02/21 04:33:55;;;;;;;13.00;5.63;;;;;;;4.65;100.00;96658.16;5058203;28;21100;-64
2023/02/21 04:36:22;;;;;;;14.30;5.77;;;;;;;4.79;100.00;96649.97;5058752;28;20203;-65
2023/02/21 04:38:49;;;;;;;19.97;6.97;;;;;;;4.85;100.00;96652.88;5059452;28;20197;-66
2023/02/21 04:41:16;;;;;;;14.23;5.77;;;;;;;4.72;100.00;96655.84;5058949;28;20204;-67
2023/02/21 04:43:42;;;;;;;11.60;6.00;;;;;;;4.80;100.00;96658.63;5058077;28;20225;-66
2023/02/21 04:46:09;;;;;;;12.30;6.13;;;;;;;4.85;100.00;96660.72;5058986;28;20232;-66
2023/02/21 04:48:37;;;;;;;18.27;6.23;;;;;;;4.96;100.00;96660.63;5058917;28;20201;-66
2023/02/21 04:51:04;;;;;;;14.13;5.60;;;;;;;4.90;100.00;96657.69;5058864;28;20216;-65
2023/02/21 04:53:30;;;;;;;18.67;6.27;;;;;;;4.92;100.00;96655.78;5058012;28;20227;-67
2023/02/21 04:55:57;;;;;;;15.83;6.27;;;;;;;4.97;100.00;96659.63;5058730;28;20200;-65
2023/02/21 04:58:23;;;;;;;18.77;6.27;;;;;;;4.89;100.00;96658.66;5058386;28;20209;-65
2023/02/21 05:00:50;;;;;;;17.30;5.63;;;;;;;4.82;100.00;96661.94;5058393;28;20676;-66
2023/02/21 05:03:17;;;;;;;13.10;5.83;;;;;;;4.73;100.00;96660.13;5058797;28;20221;-66
2023/02/21 05:05:45;;;;;;;15.27;6.33;;;;;;;4.82;100.00;96657.53;5057970;28;20282;-67
2023/02/21 05:08:11;;;;;;;14.13;6.07;;;;;;;4.58;100.00;96658.81;5056476;28;20212;-66
2023/02/21 05:10:37;;;;;;;15.37;6.20;;;;;;;4.47;100.00;96656.28;5058584;28;20933;-65
2023/02/21 05:13:04;;;;;;;12.33;5.97;;;;;;;4.53;100.00;96646.16;5058357;28;20224;-66
2023/02/21 05:15:30;;;;;;;14.63;6.83;;;;;;;4.56;100.00;96645.88;5056787;28;20707;-66
2023/02/21 05:17:57;;;;;;;16.40;6.23;;;;;;;4.46;100.00;96645.00;5058718;28;20202;-65
2023/02/21 05:20:23;;;;;;;14.10;6.10;;;;;;;4.53;100.00;96640.09;5058840;28;20291;-67
2023/02/21 05:22:51;;;;;;;12.07;5.43;;;;;;;4.71;100.00;96638.53;5057887;28;20239;-66
2023/02/21 05:25:19;;;;;;;12.57;5.60;;;;;;;4.66;100.00;96640.69;5056700;28;20699;-66
2023/02/21 05:27:46;;;;;;;17.53;5.97;;;;;;;4.63;100.00;96630.53;5058159;28;20200;-67
2023/02/21 05:30:15;;;;;;;13.50;6.27;;;;;;;4.58;100.00;96627.47;5057850;28;20968;-67
2023/02/21 05:32:42;;;;;;;12.30;5.83;;;;;;;4.59;100.00;96618.72;5057180;28;20221;-66
2023/02/21 05:35:09;;;;;;;13.17;6.10;;;;;;;4.64;100.00;96624.38;5057234;28;20210;-68
2023/02/21 05:37:36;;;;;;;15.80;6.53;;;;;;;4.72;100.00;96620.13;5057805;28;20213;-67
2023/02/21 05:40:04;;;;;;;19.13;5.97;;;;;;;4.80;100.00;96622.06;5057964;28;20200;-66
2023/02/21 05:42:31;;;;;;;21.07;5.80;;;;;;;4.70;100.00;96632.50;5057596;28;20262;-67
2023/02/21 05:44:58;;;;;;;16.50;6.47;;;;;;;4.71;100.00;96630.69;5056936;28;20212;-67
2023/02/21 05:47:24;;;;;;;17.77;6.17;;;;;;;4.32;100.00;96631.50;5056852;28;20232;-65
2023/02/21 05:49:50;;;;;;;14.03;6.20;;;;;;;4.58;100.00;96628.34;5058134;28;20208;-67
2023/02/21 05:52:17;;;;;;;15.30;5.93;;;;;;;4.45;100.00;96637.31;5057658;28;20228;-67
2023/02/21 05:54:44;;;;;;;14.97;6.53;;;;;;;4.54;100.00;96636.53;5056387;28;20208;-67
2023/02/21 05:57:12;;;;;;;19.23;7.40;;;;;;;4.54;100.00;96631.31;5057140;28;20696;-66
2023/02/21 05:59:39;;;;;;;13.23;5.83;;;;;;;4.53;100.00;96629.66;5057976;28;20215;-67
2023/02/21 06:02:05;;;;;;;19.03;6.43;;;;;;;4.24;100.00;96636.53;5057545;28;20291;-67
2023/02/21 06:04:32;;;;;;;19.97;6.90;;;;;;;4.23;100.00;96635.69;5056175;28;20736;-67
2023/02/21 06:06:58;;;;;;;27.77;9.53;;;;;;;4.37;100.00;96637.16;5057446;28;20216;-66
2023/02/21 06:09:25;;;;;;;24.70;9.63;;;;;;;4.39;100.00;96627.41;5057453;28;20213;-69
2023/02/21 06:11:55;;;;;;;16.63;7.40;;;;;;;4.24;100.00;96633.94;5057107;28;20829;-67
2023/02/21 06:14:23;;;;;;;19.10;7.67;;;;;;;4.44;100.00;96631.28;5056504;28;20208;-66
2023/02/21 06:16:50;;;;;;;16.00;7.13;;;;;;;4.32;100.00;96639.31;5057262;28;20223;-66
2023/02/21 06:19:18;;;;;;;18.97;7.30;;;;;;;4.49;100.00;96638.72;5056985;28;20215;-68
2023/02/21 06:21:44;;;;;;;16.03;7.17;;;;;;;4.50;100.00;96640.38;5056690;28;20200;-66
2023/02/21 06:24:14;;;;;;;13.20;7.20;;;;;;;4.58;100.00;96640.53;5056677;28;20201;-68
2023/02/21 06:26:41;;;;;;;14.23;6.40;;;;;;;4.57;100.00;96641.47;5056523;28;20719;-67
2023/02/21 06:29:08;;;;;;;24.40;7.63;;;;;;;4.63;100.00;96641.78;5056939;28;20295;-68
2023/02/21 06:31:36;;;;;;;19.27;7.20;;;;;;;4.74;100.00;96643.50;5056610;28;20211;-67
2023/02/21 06:34:03;;;;;;;16.53;5.87;;;;;;;4.72;100.00;96642.78;5055741;28;20224;-67
2023/02/21 06:36:29;;;;;;;16.53;7.20;;;;;;;4.80;100.00;96638.56;5056741;28;20610;-67
2023/02/21 06:38:57;;;;;;;17.10;7.00;;;;;;;4.91;100.00;96639.28;5056304;28;20205;-67
2023/02/21 06:41:26;;;;;;;16.83;6.93;;;;;;;4.93;100.00;96639.97;5056609;28;20204;-68
2023/02/21 06:43:53;;;;;;;14.43;6.63;;;;;;;5.01;100.00;96642.75;5055803;28;20224;-66
2023/02/21 06:46:22;;;;;;;17.27;6.60;;;;;;;5.15;100.00;96644.16;5056426;28;20596;-66
2023/02/21 06:48:50;;;;;;;20.20;6.57;;;;;;;5.16;100.00;96641.41;5056941;28;20650;-65
2023/02/21 06:51:18;;;;;;;19.13;7.47;;;;;;;5.13;100.00;96646.06;5056815;28;20196;-66
2023/02/21 06:53:48;;;;;;;14.47;6.87;;;;;;;5.20;100.00;96648.00;5055774;28;20224;-68
2023/02/21 06:56:15;;;;;;;14.57;6.63;;;;;;;5.26;100.00;96644.88;5056861;28;20569;-67
2023/02/21 06:58:41;;;;;;;20.33;7.40;;;;;;;5.18;100.00;96655.19;5056757;28;20215;-68
2023/02/21 07:01:08;;;;;;;13.77;6.70;;;;;;;5.32;100.00;96652.19;5056714;28;20207;-68
2023/02/21 07:03:38;;;;;;;18.53;7.13;;;;;;;5.42;100.00;96658.22;5056178;28;20228;-67
2023/02/21 07:06:06;;;;;;;16.60;6.70;;;;;;;5.45;100.00;96658.78;5056916;28;20692;-66
2023/02/21 07:08:32;;;;;;;20.20;8.27;;;;;;;5.54;100.00;96665.00;5056037;28;20408;-65
2023/02/21 07:10:59;;;;;;;18.50;8.17;;;;;;;5.58;100.00;96664.56;5056506;28;20211;-66
2023/02/21 07:13:25;;;;;;;16.13;7.57;;;;;;;5.56;100.00;96665.66;5056386;28;20235;-67
2023/02/21 07:15:52;;;;;;;15.80;6.67;;;;;;;5.67;100.00;96657.69;5055826;28;20205;-65
2023/02/21 07:18:18;;;;;;;16.83;7.17;;;;;;;5.79;100.00;96660.09;5056376;28;20211;-67
2023/02/21 07:20:45;;;;;;;21.97;8.27;;;;;;;5.86;99.98;96665.59;5056252;28;20208;-67
2023/02/21 07:23:12;;;;;;;20.90;7.93;;;;;;;5.97;100.00;96660.19;5056010;28;20224;-67
2023/02/21 07:25:39;;;;;;;17.90;7.50;;;;;;;5.75;99.25;96666.53;5055247;28;20677;-68
2023/02/21 07:28:05;;;;;;;17.30;7.60;;;;;;;5.90;98.81;96665.16;5056369;28;20728;-67
2023/02/21 07:30:33;;;;;;;15.43;7.63;;;;;;;5.76;98.97;96662.97;5056553;28;20219;-68
2023/02/21 07:32:59;;;;;;;18.23;7.67;;;;;;;5.68;99.41;96662.78;5059824;28;20216;-67
2023/02/21 07:35:26;;;;;;;15.93;6.90;;;;;;;5.64;100.00;96679.72;5058117;28;20217;-67
2023/02/21 07:37:52;;;;;;;16.70;7.17;;;;;;;5.70;99.60;96679.19;5059529;28;20220;-66
2023/02/21 07:40:20;;;;;;;18.90;7.63;;;;;;;5.93;99.16;96671.91;5059224;28;20196;-67
2023/02/21 07:42:47;;;;;;;20.93;7.43;;;;;;;6.04;98.36;96678.63;5058945;28;20231;-65
2023/02/21 07:45:16;;;;;;;18.57;7.03;;;;;;;6.19;98.47;96682.47;5058753;28;20201;-66
2023/02/21 07:47:44;;;;;;;17.43;6.93;;;;;;;6.07;97.36;96695.84;5059269;28;20231;-66
2023/02/21 07:50:11;;;;;;;16.97;6.63;;;;;;;6.12;97.64;96689.25;5059080;28;20645;-67
2023/02/21 07:52:37;;;;;;;15.93;7.87;;;;;;;6.23;97.78;96694.31;5058483;28;20795;-66
2023/02/21 07:55:04;;;;;;;14.50;6.50;;;;;;;6.36;97.30;96684.38;5058228;28;20196;-66
2023/02/21 07:57:32;;;;;;;12.67;6.30;;;;;;;6.55;98.04;96683.53;5060985;28;20204;-69
2023/02/21 07:59:59;;;;;;;14.20;6.30;;;;;;;6.57;96.51;96674.56;5059682;28;20204;-66
2023/02/21 08:02:25;;;;;;;17.77;6.47;;;;;;;6.70;96.20;96690.78;5058480;28;20217;-68
2023/02/21 08:04:52;;;;;;;24.03;6.67;;;;;;;6.91;94.20;96684.38;5058042;28;20383;-68
2023/02/21 08:07:19;;;;;;;16.83;6.67;;;;;;;6.99;93.92;96683.66;5057989;28;20231;-68
2023/02/21 08:09:45;;;;;;;16.13;6.77;;;;;;;6.95;93.28;96677.88;5059174;28;20584;-68
2023/02/21 08:12:12;;;;;;;15.27;6.63;;;;;;;7.05;94.46;96676.03;5058413;28;20301;-68
2023/02/21 08:14:40;;;;;;;14.27;6.23;;;;;;;7.28;94.01;96674.69;5057268;28;21016;-67
2023/02/21 08:17:06;;;;;;;14.30;6.10;;;;;;;7.24;93.60;96677.72;5059358;28;21183;-66
2023/02/21 08:19:33;;;;;;;17.67;5.50;;;;;;;7.26;92.26;96675.78;5057786;28;20700;-67
2023/02/21 08:21:59;;;;;;;13.00;6.00;;;;;;;7.38;93.48;96671.03;5057671;28;20204;-66
2023/02/21 08:24:25;;;;;;;15.73;7.00;;;;;;;7.53;92.27;96676.59;5057572;28;20687;-66
2023/02/21 08:26:52;;;;;;;16.77;6.73;;;;;;;7.55;92.00;96677.28;5057859;28;20630;-68
2023/02/21 08:29:18;;;;;;;13.40;5.97;;;;;;;7.80;91.88;96671.28;5058238;28;20209;-67
2023/02/21 08:31:46;;;;;;;18.53;5.90;;;;;;;7.93;90.63;96677.81;5057926;28;21266;-67
2023/02/21 08:34:13;;;;;;;25.80;9.50;;;;;;;7.92;90.63;96676.97;5058103;28;20246;-67
2023/02/21 08:36:41;;;;;;;21.60;7.50;;;;;;;7.91;91.13;96670.06;5058441;28;20204;-67
2023/02/21 08:39:08;;;;;;;12.97;6.60;;;;;;;7.96;91.43;96677.50;5058780;28;20384;-66
2023/02/21 08:41:37;;;;;;;12.10;5.70;;;;;;;8.05;91.43;96672.16;5058127;28;20208;-68
2023/02/21 08:44:04;;;;;;;17.70;6.70;;;;;;;8.22;89.54;96671.38;5057097;28;20350;-68
2023/02/21 08:46:30;;;;;;;12.70;5.90;;;;;;;8.43;87.97;96668.41;5057873;28;20232;-67
2023/02/21 08:48:58;;;;;;;14.50;6.27;;;;;;;8.62;89.07;96672.47;5059798;28;20204;-66
2023/02/21 08:51:25;;;;;;;12.77;5.53;;;;;;;8.68;86.42;96671.03;5058723;28;20295;-68
2023/02/21 08:53:52;;;;;;;14.83;6.40;;;;;;;8.82;85.41;96668.66;5056205;28;20251;-67
2023/02/21 08:56:19;;;;;;;14.70;5.33;;;;;;;8.95;85.76;96666.44;5057005;28;21248;-66
2023/02/21 08:58:46;;;;;;;11.60;5.77;;;;;;;9.03;85.88;96670.91;5057168;28;20281;-66
2023/02/21 09:01:12;;;;;;;10.87;4.97;;;;;;;9.16;84.21;96661.59;5056507;28;20283;-67
2023/02/21 09:03:39;;;;;;;13.73;5.10;;;;;;;9.14;83.12;96666.22;5056795;28;20507;-66
2023/02/21 09:06:07;;;;;;;9.17;4.97;;;;;;;9.13;83.15;96668.00;5056416;28;20217;-66
2023/02/21 09:08:35;;;;;;;10.87;5.03;;;;;;;9.13;83.75;96673.25;5057131;28;20220;-68
2023/02/21 09:11:02;;;;;;;11.90;5.23;;;;;;;9.33;83.42;96666.78;5057764;28;20673;-68
2023/02/21 09:13:31;;;;;;;17.00;5.73;;;;;;;9.50;83.23;96670.28;5057655;28;20228;-67
2023/02/21 09:15:58;;;;;;;11.63;5.60;;;;;;;9.48;82.61;96657.28;5057291;28;20193;-68
2023/02/21 09:18:25;;;;;;;11.40;5.43;;;;;;;9.68;82.63;96666.53;5058340;28;20945;-67
2023/02/21 09:20:54;;;;;;;14.30;5.00;;;;;;;9.85;80.86;96666.41;5058353;28;20196;-69
2023/02/21 09:23:22;;;;;;;11.37;4.23;;;;;;;9.84;80.47;96656.88;5058161;28;20242;-68
2023/02/21 09:25:48;;;;;;;10.43;5.43;;;;;;;9.91;81.02;96663.13;5056986;28;20212;-68
2023/02/21 09:28:15;;;;;;;6.70;3.57;;;;;;;10.09;79.88;96655.91;5057831;28;20227;-68
2023/02/21 09:30:42;;;;;;;12.40;4.57;;;;;;;10.16;79.32;96664.84;5058268;28;20201;-68
2023/02/21 09:33:09;;;;;;;13.60;5.70;;;;;;;10.34;78.98;96660.22;5057314;28;20220;-69
2023/02/21 09:35:35;;;;;;;10.27;4.90;;;;;;;10.42;78.72;96655.78;5057260;28;20211;-67
2023/02/21 09:38:05;;;;;;;15.43;4.77;;;;;;;10.57;78.00;96662.00;5057812;28;20193;-67
2023/02/21 09:40:39;;;;;;;12.00;5.30;;;;;;;10.77;77.28;96662.47;5058255;28;20227;-69
2023/02/21 09:43:13;;;;;;;9.47;4.97;;;;;;;10.78;76.39;96662.31;5058548;28;20339;-67
2023/02/21 09:45:42;;;;;;;9.70;5.20;;;;;;;10.99;78.38;96659.94;5057492;28;20199;-67
2023/02/21 09:48:13;;;;;;;7.47;4.17;;;;;;;11.13;75.04;96667.16;5058275;28;20305;-69
2023/02/21 09:50:43;;;;;;;10.27;3.83;;;;;;;11.20;74.33;96658.41;5058969;28;20204;-68
2023/02/21 09:53:13;;;;;;;8.70;4.57;;;;;;;11.29;73.63;96667.09;5057471;28;20408;-67
2023/02/21 09:55:41;;;;;;;9.90;4.60;;;;;;;11.36;72.64;96668.06;5057766;28;20475;-69
2023/02/21 09:58:12;;;;;;;8.50;4.30;;;;;;;11.50;71.33;96668.19;5058642;28;20201;-68
2023/02/21 10:00:39;;;;;;;9.87;4.30;;;;;;;11.53;70.74;96664.38;5058876;28;20259;-67
2023/02/21 10:03:18;;;;;;;7.90;4.10;;;;;;;11.64;70.34;96667.47;5058211;28;20221;-68
2023/02/21 10:05:48;;;;;;;11.57;4.13;;;;;;;11.64;70.54;96657.72;5057197;28;20211;-69
2023/02/21 10:08:22;;;;;;;13.33;4.77;;;;;;;11.67;71.09;96657.38;5058535;28;20615;-67
2023/02/21 10:10:55;;;;;;;7.53;3.93;;;;;;;11.69;70.78;96657.22;5057034;28;20204;-69
2023/02/21 10:13:35;;;;;;;8.70;3.83;;;;;;;11.94;70.58;96656.06;5057368;28;20778;-69
2023/02/21 10:16:06;;;;;;;11.67;4.23;;;;;;;12.14;71.97;96651.97;5057628;28;20672;-67
2023/02/21 10:18:39;;;;;;;13.23;5.30;;;;;;;12.26;70.27;96649.53;5057437;28;20208;-68
2023/02/21 10:21:14;;;;;;;10.90;5.37;;;;;;;12.45;69.53;96646.41;5058275;28;20212;-67
2023/02/21 10:23:45;;;;;;;9.50;5.13;;;;;;;12.72;68.53;96645.03;5057140;28;20219;-67
2023/02/21 10:26:17;;;;;;;11.27;5.60;;;;;;;12.78;69.44;96648.56;5057492;28;20200;-69
2023/02/21 10:28:44;;;;;;;7.93;4.37;;;;;;;12.76;68.18;96642.63;5056693;28;20224;-68
2023/02/21 10:31:14;;;;;;;8.97;4.30;;;;;;;12.92;67.59;96652.28;5056998;28;20205;-68
2023/02/21 10:33:41;;;;;;;7.83;3.93;;;;;;;12.93;66.92;96645.97;5056053;28;20229;-69
2023/02/21 10:36:18;;;;;;;9.40;4.33;;;;;;;13.28;65.79;96642.63;5056987;28;20201;-68
2023/02/21 10:38:54;;;;;;;10.07;3.90;;;;;;;13.36;65.48;96645.16;5056820;28;20466;-67
2023/02/21 10:41:27;;;;;;;12.53;4.53;;;;;;;13.48;67.00;96655.91;5056629;28;20200;-68
2023/02/21 10:43:59;;;;;;;12.53;4.60;;;;;;;13.34;67.10;96655.94;5055994;28;20224;-69
2023/02/21 10:46:31;;;;;;;6.93;3.47;;;;;;;13.47;64.92;96648.16;5055625;28;20378;-69
2023/02/21 10:49:16;;;;;;;7.47;4.47;;;;;;;13.34;65.47;96653.28;5055564;28;21043;-69
2023/02/21 10:51:42;;;;;;;10.27;3.70;;;;;;;13.20;64.73;96645.34;5055148;28;20372;-67
2023/02/21 10:54:20;;;;;;;7.33;3.80;;;;;;;13.66;64.71;96637.00;5053745;28;20204;-68
2023/02/21 10:56:50;;;;;;;6.73;4.10;;;;;;;13.72;63.65;96637.06;5055604;28;20204;-68
2023/02/21 10:59:22;;;;;;;6.90;4.13;;;;;;;13.55;63.90;96632.97;5055693;28;20768;-68
2023/02/21 11:01:50;;;;;;;6.80;3.90;;;;;;;13.64;63.99;96633.69;5056401;28;20208;-69
2023/02/21 11:04:27;;;;;;;7.22;3.13;;;;;;;13.55;62.57;96632.16;5055663;28;20605;-69
2023/02/21 11:06:56;;;;;;;8.02;4.00;;;;;;;13.85;63.59;96626.63;5059424;28;20208;-68
2023/02/21 11:09:32;;;;;;;7.68;4.00;;;;;;;14.11;62.26;96621.63;5061044;28;20215;-67
2023/02/21 11:14:25;;;;;;;7.07;3.80;;;;;;;13.91;62.87;96620.53;5053359;28;20578;-69
2023/02/21 11:17:07;;;;;;;6.47;3.58;;;;;;;14.31;59.61;96617.31;5053507;28;21296;-68
2023/02/21 11:19:54;;;;;;;8.15;3.25;;;;;;;14.41;58.65;96607.19;5054403;28;20208;-68
2023/02/21 11:22:23;;;;;;;5.85;3.47;;;;;;;14.02;60.03;96601.50;5053685;28;20231;-67
2023/02/21 11:25:05;;;;;;;7.78;2.95;;;;;;;14.17;56.57;96607.63;5051953;28;20201;-69
2023/02/21 11:27:34;;;;;;;8.93;3.35;;;;;;;14.21;57.79;96603.56;5054066;28;20726;-69
2023/02/21 11:30:09;;;;;;;4.65;2.80;;;;;;;14.45;57.01;96603.19;5054221;28;20311;-68
2023/02/21 11:32:39;;;;;;;5.30;3.20;;;;;;;14.52;56.71;96594.22;5052139;28;20234;-67
2023/02/21 11:35:20;;;;;;;7.80;3.47;;;;;;;14.70;56.37;96595.41;5053040;28;20211;-67
2023/02/21 11:37:50;;;;;;;6.80;3.15;;;;;;;14.61;55.99;96593.06;5053546;28;20204;-68
2023/02/21 11:40:31;;;;;;;6.75;2.60;;;;;;;14.73;54.19;96588.91;5053786;28;20212;-68
2023/02/21 11:43:23;;;;;;;5.93;2.20;;;;;;;14.70;53.68;96582.16;5053713;28;20227;-68
2023/02/21 11:46:01;;;;;;;6.75;2.28;;;;;;;15.02;54.06;96576.22;5038135;28;20209;-69
2023/02/21 11:48:32;;;;;;;6.63;2.13;;;;;;;14.92;53.74;96577.59;5053542;28;20209;-69
2023/02/21 11:51:04;;;;;;;6.45;2.17;;;;;;;15.14;52.49;96572.00;5053297;28;20215;-69
2023/02/21 11:53:37;;;;;;;4.90;2.60;;;;;;;15.28;53.27;96565.75;5052555;28;20612;-68
2023/02/21 11:56:11;;;;;;;5.55;2.45;;;;;;;15.30;53.07;96561.88;5053128;28;20205;-67
2023/02/21 11:58:44;;;;;;;6.75;2.28;;;;;;;15.49;51.18;96553.19;5053396;28;20212;-68
2023/02/21 12:01:18;;;;;;;5.03;2.55;;;;;;;15.61;51.62;96545.47;5053009;28;20212;-69
2023/02/21 12:03:59;;;;;;;4.50;2.05;;;;;;;15.40;51.79;96542.91;5051020;28;20212;-69
2023/02/21 12:06:32;;;;;;;3.72;2.40;;;;;;;15.45;49.92;96535.19;5053026;28;20216;-68
2023/02/21 12:09:04;;;;;;;5.72;2.33;;;;;;;15.49;50.52;96531.09;5053100;28;20197;-68
2023/02/21 12:11:52;;;;;;;3.92;2.20;;;;;;;15.78;49.65;96528.94;5054363;28;20209;-67
2023/02/21 12:14:55;;;;;;;3.83;2.00;;;;;;;15.71;49.39;96524.66;5035467;28;20232;-69
2023/02/21 12:17:43;;;;;;;4.72;2.25;;;;;;;15.96;50.02;96518.53;5042868;28;20212;-67
2023/02/21 12:20:25;;;;;;;4.20;2.15;;;;;;;15.67;47.98;96512.75;5052887;28;20266;-68
2023/02/21 12:23:04;;;;;;;5.78;1.65;;;;;;;15.68;48.19;96509.91;5053591;28;20220;-69
2023/02/21 12:25:38;;;;;;;3.97;1.92;;;;;;;15.53;49.23;96500.47;5039666;28;20209;-67
2023/02/21 12:28:16;;;;;;;2.63;1.63;;;;;;;15.55;49.17;96503.75;5038930;28;20210;-68
2023/02/21 12:30:56;;;;;;;4.25;1.77;;;;;;;15.63;48.54;96490.28;5039797;28;20213;-67
2023/02/21 12:33:34;;;;;;;7.65;1.80;;;;;;;15.76;48.41;96492.94;5038420;28;20283;-67
2023/02/21 12:36:26;;;;;;;4.70;1.90;;;;;;;15.99;47.42;96487.03;5039526;28;20201;-67
2023/02/21 12:38:59;;;;;;;6.45;1.60;;;;;;;15.96;47.06;96476.84;5038864;28;20201;-67
2023/02/21 12:41:40;;;;;;;4.03;1.50;;;;;;;15.92;45.60;96480.91;5038950;28;20212;-69
2023/02/21 12:44:13;;;;;;;2.05;1.30;;;;;;;16.16;45.28;96467.00;5038519;28;20662;-69
2023/02/21 12:46:47;;;;;;;5.68;1.83;;;;;;;16.08;45.63;96466.41;5039369;28;20201;-68
2023/02/21 12:49:22;;;;;;;3.63;1.40;;;;;;;15.97;46.29;96464.34;5038703;28;20426;-69
2023/02/21 12:51:53;;;;;;;4.50;1.40;;;;;;;16.05;46.83;96456.16;5039018;28;20204;-70
2023/02/21 12:54:26;;;;;;;3.42;1.63;;;;;;;16.15;46.23;96452.09;5037992;28;20233;-68
2023/02/21 12:56:57;;;;;;;2.72;1.40;;;;;;;16.12;45.29;96449.81;5038551;28;20205;-69
2023/02/21 12:59:29;;;;;;;1.58;1.15;;;;;;;16.06;45.63;96445.34;5038887;28;20209;-69
2023/02/21 13:02:01;;;;;;;4.93;1.70;;;;;;;15.94;46.56;96441.66;5038860;28;20201;-67
2023/02/21 13:04:36;;;;;;;3.05;1.70;;;;;;;15.99;45.49;96446.38;5037705;28;20197;-67
2023/02/21 13:07:10;;;;;;;4.38;1.30;;;;;;;16.06;45.58;96433.88;5037845;28;20211;-67
2023/02/21 13:09:40;;;;;;;1.48;1.00;;;;;;;16.06;45.28;96434.72;5038552;28;20664;-68
2023/02/21 13:12:12;;;;;;;1.67;1.05;;;;;;;16.23;44.98;96429.75;5037782;28;20217;-67
2023/02/21 13:14:49;;;;;;;2.13;0.90;;;;;;;16.22;44.48;96422.84;5037674;28;20229;-69
2023/02/21 13:17:17;;;;;;;1.80;1.00;;;;;;;16.03;44.36;96418.34;5038344;28;20215;-69
2023/02/21 13:19:48;;;;;;;1.70;1.00;;;;;;;16.27;44.95;96420.41;5038146;28;20615;-69
2023/02/21 13:22:52;;;;;;;2.65;1.08;;;;;;;16.40;44.56;96410.53;5038344;28;21367;-67
2023/02/21 13:25:30;;;;;;;2.53;1.00;;;;;;;16.48;44.06;96405.00;5037618;28;20242;-69
2023/02/21 13:28:05;;;;;;;2.78;1.10;;;;;;;16.45;43.72;96402.75;5037628;28;20354;-69
2023/02/21 13:30:39;;;;;;;5.25;1.00;;;;;;;16.36;42.25;96398.69;5037488;28;20590;-68
2023/02/21 13:33:06;;;;;;;1.45;1.10;;;;;;;16.27;43.60;96386.63;5038495;28;20225;-69
2023/02/21 13:35:38;;;;;;;2.78;0.98;;;;;;;16.55;44.26;96392.50;5035951;28;20776;-67
2023/02/21 13:38:06;;;;;;;3.00;1.02;;;;;;;16.50;44.14;96384.31;5037194;28;20209;-69
2023/02/21 13:43:06;;;;;;;29.35;11.15;;;;;;;16.60;42.32;96374.06;5094848;27;20563;-70
2023/02/21 13:45:32;;;;;;;1.52;1.08;;;;;;;16.61;42.79;96367.69;5094129;28;20198;-69
2023/02/21 13:48:24;;;;;;;1.67;1.08;;;;;;;16.75;42.37;96361.28;5095269;28;20206;-68
2023/02/21 13:50:53;;;;;;;1.27;0.80;;;;;;;16.54;42.44;96361.59;5094230;28;20199;-67
2023/02/21 13:53:21;;;;;;;1.00;0.70;;;;;;;16.67;40.63;96353.56;5093000;28;20241;-68
2023/02/21 13:56:23;;;;;;;2.63;0.80;;;;;;;16.72;40.65;96354.53;5091064;28;20210;-70
2023/02/21 13:58:51;;;;;;;2.00;0.75;;;;;;;16.77;41.02;96348.59;5092784;28;20376;-68
2023/02/21 14:01:45;;;;;;;1.13;0.82;;;;;;;16.71;42.52;96350.28;5093271;28;20695;-69
2023/02/21 14:05:02;;;;;;;2.85;0.85;;;;;;;16.79;42.78;96336.72;5092907;28;20207;-70
2023/02/21 14:07:44;;;;;;;2.05;0.90;;;;;;;17.04;43.04;96339.44;5088659;27;20191;-70
2023/02/21 14:10:23;;;;;;;3.72;1.08;;;;;;;17.11;42.39;96335.72;5094289;28;20199;-67